Glennallen, AK (99588)

3:09 AM AKST on December 22, 2014 (GMT -0900)
AKDOT Glenn Highway @ MP 176.6 | Change Station
CLOSE
Current Station
Personal Weather Station
Location: Glennallen, AK
Elevation: 2112 ft
Nearby Weather Stations

Elev 2112 ft 62.11 °N, 145.85 °W | Updated 44 minutes ago

Overcast
Overcast
2 °F
Feels Like 2 °F
N
0
Wind Variable Wind from NW
Gusts 0.0 mph

Today
High -- | Low -- °F
--% Chance of Precip.
Yesterday
High -- | Low -- °F
Precip. -- in
10:10 AM 3:18 PM
New Moon, 0% visible
Pressure 29.70 in
Visibility 10.0 miles
Clouds Few 900 ft
Overcast 1600 ft
Windchill 2 °F
Dew Point -1 °F
Humidity 87%
Rainfall -999.00 in
Snow Depth Not available.
UV 0 out of 12
Pollen Not available.
Air Quality Not available.
Flu Activity Not available.
SPECI PAGK 221206Z AUTO 00000KT 10SM FEW009 OVC016 M16/M18 A2970 RMK AO2 T11561178 TSNO $

More Conditions Fewer Conditions

Pressure 29.70 in
Visibility 10.0 miles
Clouds Few 900 ft
Overcast 1600 ft
Windchill 2 °F
Dew Point -1 °F
Humidity 87%
Rainfall -999.00 in
Snow Depth Not available.
UV 0 out of 12
Pollen Not available.
Air Quality Not available.
Flu Activity Not available.
SPECI PAGK 221206Z AUTO 00000KT 10SM FEW009 OVC016 M16/M18 A2970 RMK AO2 T11561178 TSNO $

More Conditions Fewer Conditions

10-Day Weather Forecast

Almanac

Astronomy

Dec. 22, 2014 Rise Set
Actual Time
Civil Twilight
Nautical Twilight
Astronomical Twilight
Moon
Length of Visible Light
Length of Day
Tomorrow will be .
, % of the Moon is Illuminated

Today's Extremes

State Highs State Lows

Community

WunderPhotos

Upload Photos

1,779,592 photos uploaded!

WunderBlogs® & News

Nearby

Air Quality

  Air Quality AQ Index Pollutant
Not available.

Snow Depth

Station Depth Elevation

Earthquake Activity

City Distance Mag. Time & Date
Minimum magnitude displayed is 2.5.

Coastal Water Temperatures

Place Temperature

Nearby Weather Stations